Meteo Giornale » Osservazioni meteo Italia » Pescara

ore: 07:50 - Osservazioni Meteo Pescara
Lat. 42° 26' N Lon. 14° 12' E Alt. 10 metri s.l.m.

sereno Europe/Rome

15 °C

Sereno

Temp. 24 Ore

9 °C

20 °C

Nord/Nord-Est

7.4 Km/h

Dew point 12 °C

Umidità 82 %

Visibilità  10 Km

Il sole sorge alle ore 05:53

Il sole tramonta alle ore 18:23

Data e Ora Cielo e Fenomeni T °C DP °C Um. % Pres. hPa Vis. km Vento km/h
Oggi h: 07:50 sereno Sereno 15 12 82 1018 10 N/NE 7.4
Oggi h: 06:50 poco_nuvoloso Poco Nuvoloso 11 9 87 1018 10 NE 13
Oggi h: 06:11 poco_nuvoloso Poco Nuvoloso 11 9 87 1017 10 N/NE 11.1
Oggi h: 06:02 foschia Foschia 9 8 93 1017 5 NE 7.4
Oggi h: 05:50 poco_nuvoloso Poco Nuvoloso 10 8 87 1017 6 N 5.5
Oggi h: 05:15 foschia Foschia 9 8 93 1016 5 N 5.5
Oggi h: 04:50 foschia Foschia 10 8 87 1016 5 N 3.7
Oggi h: 03:50 foschia Foschia 10 8 87 1016 5 O/SO 9.3
Oggi h: 03:10 foschia Foschia 9 8 93 1016 2 N 5.5
Oggi h: 03:50 foschia Foschia 10 9 93 1016 4 N 3.7
Oggi h: 01:50 foschia Foschia 9 8 93 1016 4 S/SO 9.3
Oggi h: 01:15 foschia Foschia 9 8 93 1016 4 S/SO 9.3
Oggi h: 01:02 foschia Foschia 9 8 93 1016 3 N 5.5
Oggi h: 00:50 foschia Foschia 10 9 93 1017 4 N 3.7
Ieri h: 23:50 foschia Foschia 9 7 87 1017 4 S/SO 7.4
Ieri h: 22:50 sereno Sereno 12 10 87 1018 6 N 3.7
Ieri h: 21:50 sereno Sereno 11 9 87 1018 7 N 3.7
Ieri h: 20:50 sereno Sereno 12 10 87 1018 7 N 1.8
Ieri h: 19:50 sereno Sereno 14 10 76 1018 7 N 3.7
Ieri h: 18:50 sereno Sereno 15 10 72 1018 8 N 5.5
Ieri h: 17:50 sereno Sereno 16 11 72 1018 8 NE 7.4
Ieri h: 16:50 sereno Sereno 17 11 67 1019 10 NE 9.3
Ieri h: 15:50 sereno Sereno 17 11 67 1019 10 E/NE 13
Ieri h: 14:50 sereno Sereno 18 11 63 1020 10 NE 16.7
Ieri h: 12:50 sereno Sereno 19 9 52 1021 10 NE 16.7
Ieri h: 11:50 sereno Sereno 20 10 52 1022 10 NE 11.1
Ieri h: 10:50 sereno Sereno 20 9 49 1022 10 N 3.7
Ieri h: 09:50 sereno Sereno 18 9 55 1023 10 S/SO 7.4
Ieri h: 08:50 sereno Sereno 14 10 76 1023 10 SO 7.4